Time;durP1;ratioP1;P1;durP2;ratioP2;P2;SDS_P1;SDS_P2;PMS_P1;PMS_P2;Temp;Humidity;BMP_temperature;BMP_pressure;BME280_temperature;BME280_humidity;BME280_pressure;Samples;Min_cycle;Max_cycle;Signal;HPM_P1;HPM_P2
2021/04/15 00:00:31;;;;;;;4.53;3.15;;;22.20;26.20;;;;;;5078530;28;20043;-54
2021/04/15 00:03:03;;;;;;;3.05;2.53;;;22.10;26.20;;;;;;5054886;28;20040;-53
2021/04/15 00:05:30;;;;;;;3.88;3.05;;;22.20;26.20;;;;;;5055172;28;20025;-58
2021/04/15 00:07:57;;;;;;;4.35;3.05;;;22.10;26.20;;;;;;5064554;28;20017;-52
2021/04/15 00:10:39;;;;;;;3.30;2.45;;;22.10;26.20;;;;;;5075007;28;20477;-52
2021/04/15 00:13:18;;;;;;;3.72;2.50;;;22.10;26.20;;;;;;5061053;28;20025;-55
2021/04/15 00:15:44;;;;;;;3.63;2.50;;;22.10;26.30;;;;;;5088712;28;20085;-55
2021/04/15 00:18:10;;;;;;;4.22;2.40;;;22.10;26.30;;;;;;5088631;28;20364;-51
2021/04/15 00:20:36;;;;;;;3.38;2.33;;;22.10;26.30;;;;;;5080541;28;20024;-53
2021/04/15 00:23:01;;;;;;;4.20;2.65;;;22.10;26.30;;;;;;5092903;28;20118;-53
2021/04/15 00:25:27;;;;;;;3.05;2.20;;;22.10;26.30;;;;;;5090180;28;20032;-55
2021/04/15 00:27:54;;;;;;;2.83;2.10;;;22.00;26.30;;;;;;5071518;28;20043;-52
2021/04/15 00:30:20;;;;;;;3.28;2.33;;;22.00;26.80;;;;;;5090196;28;20023;-53
2021/04/15 00:32:46;;;;;;;2.67;1.85;;;22.00;26.30;;;;;;5074055;28;20029;-51
2021/04/15 00:35:13;;;;;;;3.28;1.80;;;22.00;26.30;;;;;;5079599;28;20138;-51
2021/04/15 00:37:39;;;;;;;3.58;2.22;;;22.00;26.30;;;;;;5079375;28;20048;-59
2021/04/15 00:40:06;;;;;;;3.25;2.10;;;22.00;26.30;;;;;;5079938;28;20028;-54
2021/04/15 00:42:32;;;;;;;2.70;1.90;;;22.00;26.30;;;;;;5081210;28;20044;-52
2021/04/15 00:45:09;;;;;;;2.85;1.88;;;22.00;26.30;;;;;;5075893;28;20339;-53
2021/04/15 00:47:39;;;;;;;2.30;1.60;;;22.00;26.40;;;;;;5081936;28;20509;-57
2021/04/15 00:50:11;;;;;;;2.10;1.60;;;22.00;26.40;;;;;;5074006;28;20028;-52
2021/04/15 00:52:45;;;;;;;2.05;1.70;;;22.00;26.40;;;;;;5071712;28;20040;-52
2021/04/15 00:55:21;;;;;;;1.77;1.42;;;22.00;26.40;;;;;;5089607;28;20111;-54
2021/04/15 00:57:48;;;;;;;2.38;1.40;;;22.00;26.50;;;;;;5066549;28;20122;-56
2021/04/15 01:00:17;;;;;;;2.90;1.73;;;22.00;26.50;;;;;;5071841;28;20033;-52
2021/04/15 01:02:43;;;;;;;1.67;1.40;;;22.00;26.50;;;;;;5060537;28;20029;-53
2021/04/15 01:05:40;;;;;;;3.00;1.60;;;22.00;26.60;;;;;;5060323;28;20020;-54
2021/04/15 01:08:06;;;;;;;1.83;1.52;;;22.00;26.60;;;;;;5069248;28;20376;-53
2021/04/15 01:10:38;;;;;;;1.70;1.38;;;22.00;26.60;;;;;;5063362;28;20028;-53
2021/04/15 01:13:16;;;;;;;2.28;1.30;;;22.00;26.70;;;;;;5073534;28;20107;-51
2021/04/15 01:15:54;;;;;;;1.85;1.38;;;22.00;26.70;;;;;;5078764;28;20036;-58
2021/04/15 01:18:36;;;;;;;2.08;1.15;;;22.00;26.70;;;;;;5070264;28;20037;-52
2021/04/15 01:21:02;;;;;;;1.70;1.15;;;21.90;26.70;;;;;;5076432;28;20036;-54
2021/04/15 01:23:38;;;;;;;2.03;1.20;;;21.90;26.70;;;;;;5081720;28;20036;-50
2021/04/15 01:26:16;;;;;;;1.67;0.98;;;21.90;26.80;;;;;;5087252;28;20032;-54
2021/04/15 01:29:16;;;;;;;1.63;1.15;;;21.90;26.80;;;;;;5080744;28;20119;-53
2021/04/15 01:32:02;;;;;;;1.45;1.00;;;21.90;26.80;;;;;;5001906;28;20053;-52
2021/04/15 01:35:04;;;;;;;1.25;0.90;;;21.90;26.80;;;;;;5072027;28;20043;-55
2021/04/15 01:37:50;;;;;;;1.55;1.10;;;21.90;26.80;;;;;;5035444;28;20064;-50
2021/04/15 01:40:29;;;;;;;1.63;1.10;;;21.90;26.80;;;;;;5080844;28;20452;-49
2021/04/15 01:43:34;;;;;;;1.02;0.90;;;21.90;26.80;;;;;;5071137;28;20036;-54
2021/04/15 01:46:02;;;;;;;1.00;0.80;;;21.90;26.90;;;;;;5073312;28;20036;-56
2021/04/15 01:48:38;;;;;;;1.45;0.80;;;21.80;26.80;;;;;;5051769;28;20284;-52
2021/04/15 01:51:18;;;;;;;1.30;0.70;;;21.80;26.80;;;;;;5073798;28;20098;-54
2021/04/15 01:54:07;;;;;;;1.35;0.77;;;21.80;26.90;;;;;;5054043;28;20110;-50
2021/04/15 01:56:59;;;;;;;1.17;0.70;;;21.80;26.80;;;;;;5059264;28;20403;-56
2021/04/15 01:59:45;;;;;;;0.93;0.70;;;21.80;26.90;;;;;;5060062;28;20038;-52
2021/04/15 02:02:25;;;;;;;1.33;0.88;;;21.80;26.90;;;;;;5073778;28;20036;-53
2021/04/15 02:05:11;;;;;;;1.20;0.70;;;21.80;26.90;;;;;;5062820;28;20028;-59
2021/04/15 02:07:43;;;;;;;1.17;0.80;;;21.80;26.90;;;;;;5085898;28;20488;-55
2021/04/15 02:10:12;;;;;;;1.20;0.60;;;21.80;26.90;;;;;;5095452;28;20032;-52
2021/04/15 02:12:42;;;;;;;1.25;0.70;;;21.80;26.90;;;;;;5085012;28;20066;-50
2021/04/15 02:15:14;;;;;;;0.90;0.60;;;21.80;26.90;;;;;;5079776;28;20029;-49
2021/04/15 02:17:42;;;;;;;0.65;0.50;;;21.80;26.90;;;;;;5078152;28;20055;-47
2021/04/15 02:20:26;;;;;;;0.90;0.60;;;21.80;26.90;;;;;;5080313;28;20094;-55
2021/04/15 02:23:05;;;;;;;0.47;0.40;;;21.80;26.90;;;;;;5078320;28;20321;-46
2021/04/15 02:25:50;;;;;;;0.80;0.50;;;21.70;26.90;;;;;;5060034;28;20108;-51
2021/04/15 02:28:21;;;;;;;0.50;0.40;;;21.70;26.90;;;;;;5074705;28;20040;-56
2021/04/15 02:31:01;;;;;;;1.17;0.70;;;21.70;27.00;;;;;;5057068;28;20103;-53
2021/04/15 02:33:41;;;;;;;0.70;0.50;;;21.70;27.00;;;;;;5077276;28;20127;-50
2021/04/15 02:36:08;;;;;;;1.15;0.70;;;21.70;27.00;;;;;;5077266;28;20024;-53
2021/04/15 02:38:56;;;;;;;1.95;0.40;;;21.70;27.00;;;;;;5083898;28;20029;-50
2021/04/15 02:41:27;;;;;;;0.88;0.50;;;21.70;27.00;;;;;;5086508;28;20045;-46
2021/04/15 02:44:00;;;;;;;0.40;0.40;;;21.70;27.10;;;;;;5079050;28;20033;-50
2021/04/15 02:46:33;;;;;;;0.60;0.55;;;21.70;27.00;;;;;;5074474;28;20082;-48
2021/04/15 02:49:03;;;;;;;0.82;0.52;;;21.70;27.10;;;;;;5067940;28;20361;-50
2021/04/15 02:51:34;;;;;;;0.40;0.30;;;21.70;27.10;;;;;;5081989;28;20147;-48
2021/04/15 02:54:06;;;;;;;0.82;0.50;;;21.70;27.10;;;;;;5062249;28;20036;-56
2021/04/15 02:56:51;;;;;;;1.33;0.55;;;21.70;27.20;;;;;;5077880;28;20042;-52
2021/04/15 02:59:40;;;;;;;0.40;0.40;;;21.70;27.20;;;;;;5077454;28;20043;-54
2021/04/15 03:02:15;;;;;;;1.10;0.57;;;21.70;27.20;;;;;;5080732;28;20032;-54
2021/04/15 03:04:46;;;;;;;1.00;0.40;;;21.60;27.20;;;;;;5075267;28;20043;-56
2021/04/15 03:07:12;;;;;;;0.90;0.50;;;21.60;27.20;;;;;;5084832;28;20029;-54
2021/04/15 03:09:39;;;;;;;0.85;0.50;;;21.70;27.30;;;;;;5078763;28;20043;-50
2021/04/15 03:12:30;;;;;;;1.08;0.40;;;21.60;27.20;;;;;;5068468;28;20450;-53
2021/04/15 03:15:12;;;;;;;0.70;0.50;;;21.70;27.30;;;;;;5082664;28;20059;-55
2021/04/15 03:17:43;;;;;;;0.50;0.30;;;21.70;27.30;;;;;;5087595;28;20020;-52
2021/04/15 03:20:17;;;;;;;0.77;0.40;;;21.70;27.30;;;;;;5096624;28;20028;-56
2021/04/15 03:22:48;;;;;;;0.80;0.50;;;21.60;27.30;;;;;;5080736;28;20035;-53
2021/04/15 03:25:15;;;;;;;0.40;0.38;;;21.60;27.30;;;;;;5045892;28;20033;-50
2021/04/15 03:27:56;;;;;;;0.40;0.30;;;21.60;27.30;;;;;;5069964;28;20116;-49
2021/04/15 03:30:36;;;;;;;0.75;0.40;;;21.60;27.40;;;;;;5094181;28;20371;-56
2021/04/15 03:33:10;;;;;;;0.30;0.30;;;21.60;27.40;;;;;;5083402;28;20044;-54
2021/04/15 03:36:01;;;;;;;0.57;0.30;;;21.60;27.40;;;;;;5093380;28;20070;-54
2021/04/15 03:38:32;;;;;;;1.25;0.50;;;21.60;27.40;;;;;;5055901;28;20440;-50
2021/04/15 03:41:10;;;;;;;0.43;0.40;;;21.60;27.40;;;;;;5063757;28;20055;-54
2021/04/15 03:43:59;;;;;;;0.80;0.50;;;21.60;27.40;;;;;;5055492;28;20047;-54
2021/04/15 03:46:42;;;;;;;0.40;0.30;;;21.60;27.40;;;;;;5059405;28;20589;-57
2021/04/15 03:49:31;;;;;;;0.52;0.28;;;21.60;27.40;;;;;;5055592;28;20033;-53
2021/04/15 03:52:11;;;;;;;0.60;0.30;;;21.60;27.30;;;;;;5071898;28;20056;-53
2021/04/15 03:54:40;;;;;;;0.50;0.30;;;21.60;27.30;;;;;;5091785;28;20100;-54
2021/04/15 03:57:15;;;;;;;0.77;0.20;;;21.60;27.30;;;;;;5072450;28;20083;-54
2021/04/15 03:59:45;;;;;;;;;;;21.60;27.30;;;;;;5093577;28;20059;-54
2021/04/15 04:02:24;;;;;;;0.50;0.40;;;21.50;27.20;;;;;;5070941;28;20290;-54
2021/04/15 04:04:56;;;;;;;0.40;0.30;;;21.50;27.20;;;;;;5087994;28;20036;-57
2021/04/15 04:07:30;;;;;;;0.60;0.30;;;21.50;27.20;;;;;;5082825;28;20036;-54
2021/04/15 04:10:07;;;;;;;0.30;0.30;;;21.50;27.20;;;;;;5079402;28;20035;-54
2021/04/15 04:13:04;;;;;;;0.52;0.30;;;21.50;27.20;;;;;;5090127;28;20036;-52
2021/04/15 04:15:34;;;;;;;0.45;0.22;;;21.50;27.20;;;;;;5055632;28;20043;-59
2021/04/15 04:18:06;;;;;;;0.43;0.30;;;21.50;27.20;;;;;;5077080;28;20452;-57
2021/04/15 04:20:35;;;;;;;0.30;0.20;;;21.50;27.20;;;;;;5075754;28;20058;-54
2021/04/15 04:23:24;;;;;;;0.30;0.20;;;21.50;27.20;;;;;;5092065;28;20031;-59
2021/04/15 04:26:28;;;;;;;0.30;0.28;;;21.50;27.20;;;;;;5072228;28;20036;-56
2021/04/15 04:29:20;;;;;;;0.30;0.20;;;21.50;27.20;;;;;;5055807;28;20037;-58
2021/04/15 04:31:49;;;;;;;0.40;0.30;;;21.50;27.20;;;;;;5078796;28;20040;-56
2021/04/15 04:34:17;;;;;;;0.38;0.25;;;21.50;27.20;;;;;;5074060;28;20025;-56
2021/04/15 04:36:46;;;;;;;0.38;0.20;;;21.50;27.20;;;;;;5084235;28;20028;-58
2021/04/15 04:39:14;;;;;;;0.25;0.20;;;21.50;27.70;;;;;;5089819;28;20067;-56
2021/04/15 04:42:01;;;;;;;0.57;0.30;;;21.40;27.10;;;;;;5057652;28;20412;-52
2021/04/15 04:44:32;;;;;;;0.25;0.25;;;21.50;27.20;;;;;;5056078;28;20020;-56
2021/04/15 04:47:09;;;;;;;1.35;0.30;;;21.40;27.10;;;;;;5085331;28;20058;-57
2021/04/15 04:49:40;;;;;;;0.40;0.25;;;21.40;27.10;;;;;;5076777;28;20025;-53
2021/04/15 04:52:22;;;;;;;0.73;0.30;;;21.40;27.10;;;;;;5075664;28;20055;-50
2021/04/15 04:54:48;;;;;;;0.38;0.22;;;21.40;27.10;;;;;;5073352;28;20103;-56
2021/04/15 04:57:36;;;;;;;0.30;0.20;;;21.40;27.10;;;;;;5090460;28;20043;-59
2021/04/15 05:00:17;;;;;;;0.20;0.20;;;21.40;27.10;;;;;;5074225;28;20020;-51
2021/04/15 05:02:43;;;;;;;0.82;0.40;;;21.40;27.10;;;;;;5092365;28;20031;-56
2021/04/15 05:05:19;;;;;;;0.60;0.40;;;21.40;27.10;;;;;;5084179;28;20355;-56
2021/04/15 05:07:47;;;;;;;0.20;0.13;;;21.40;27.10;;;;;;5094804;28;20032;-55
2021/04/15 05:10:20;;;;;;;0.38;0.30;;;21.40;27.20;;;;;;5076214;28;20135;-52
2021/04/15 05:12:49;;;;;;;0.65;0.32;;;21.40;27.20;;;;;;5056592;28;20037;-54
2021/04/15 05:15:16;;;;;;;0.43;0.20;;;21.40;27.20;;;;;;5073916;28;20460;-53
2021/04/15 05:17:42;;;;;;;0.20;0.20;;;21.40;27.20;;;;;;5074008;28;20032;-50
2021/04/15 05:20:13;;;;;;;0.50;0.40;;;21.40;27.20;;;;;;5077077;28;20059;-55
2021/04/15 05:22:59;;;;;;;0.38;0.22;;;21.40;27.20;;;;;;5072875;28;20336;-57
2021/04/15 05:25:38;;;;;;;0.17;0.17;;;21.40;27.30;;;;;;5073809;28;20029;-53
2021/04/15 05:28:09;;;;;;;0.55;0.40;;;21.40;27.30;;;;;;5073911;28;20017;-51
2021/04/15 05:30:36;;;;;;;0.40;0.30;;;21.30;27.30;;;;;;5068921;28;20036;-56
2021/04/15 05:33:05;;;;;;;0.20;0.20;;;21.30;27.30;;;;;;5063325;28;20020;-54
2021/04/15 05:35:43;;;;;;;0.55;0.20;;;21.40;27.40;;;;;;5035833;28;20064;-51
2021/04/15 05:38:12;;;;;;;0.35;0.30;;;21.40;27.30;;;;;;5076629;28;20101;-51
2021/04/15 05:40:39;;;;;;;0.43;0.20;;;21.40;27.40;;;;;;5074230;28;20043;-57
2021/04/15 05:43:07;;;;;;;0.40;0.22;;;21.40;27.40;;;;;;5074536;28;20063;-52
2021/04/15 05:45:36;;;;;;;0.10;0.10;;;21.40;27.40;;;;;;5076955;28;20024;-51
2021/04/15 05:48:08;;;;;;;0.25;0.20;;;21.40;27.40;;;;;;5084692;28;20115;-53
2021/04/15 05:50:43;;;;;;;0.20;0.20;;;21.40;27.40;;;;;;5089874;28;20020;-53
2021/04/15 05:53:19;;;;;;;1.40;0.28;;;21.40;27.40;;;;;;5086535;28;20033;-57
2021/04/15 05:55:56;;;;;;;0.13;0.10;;;21.30;27.40;;;;;;5092482;28;20028;-55
2021/04/15 05:58:36;;;;;;;0.50;0.40;;;21.30;27.40;;;;;;5093322;28;20053;-57
2021/04/15 06:01:12;;;;;;;0.93;0.30;;;21.40;27.50;;;;;;5077118;28;20097;-57
2021/04/15 06:04:08;;;;;;;0.85;0.30;;;21.40;27.50;;;;;;5058152;28;20048;-54
2021/04/15 06:06:41;;;;;;;0.98;0.30;;;21.30;27.50;;;;;;5085168;28;20044;-55
2021/04/15 06:09:08;;;;;;;0.20;0.20;;;21.30;27.60;;;;;;5080661;28;20048;-53
2021/04/15 06:11:51;;;;;;;0.70;0.30;;;21.30;27.60;;;;;;5090608;28;20063;-51
2021/04/15 06:14:36;;;;;;;0.40;0.17;;;21.30;27.60;;;;;;5062147;28;20029;-54
2021/04/15 06:17:38;;;;;;;1.20;0.57;;;21.30;27.70;;;;;;5085575;28;20523;-52
2021/04/15 06:20:27;;;;;;;0.50;0.40;;;21.30;27.70;;;;;;5096900;28;20032;-54
2021/04/15 06:22:57;;;;;;;0.63;0.30;;;21.40;27.80;;;;;;5057115;28;20037;-53
2021/04/15 06:25:32;;;;;;;0.77;0.40;;;21.30;27.70;;;;;;5078720;28;20068;-56
2021/04/15 06:28:04;;;;;;;1.75;0.40;;;21.30;27.80;;;;;;5040175;28;20033;-53
2021/04/15 06:30:59;;;;;;;0.95;0.43;;;21.30;27.80;;;;;;5083256;28;20067;-53
2021/04/15 06:33:27;;;;;;;0.55;0.20;;;21.30;27.90;;;;;;5093573;28;20039;-55
2021/04/15 06:35:56;;;;;;;0.75;0.30;;;21.30;27.90;;;;;;5058736;28;20037;-51
2021/04/15 06:38:24;;;;;;;1.02;0.32;;;21.30;28.00;;;;;;5069341;28;20029;-59
2021/04/15 06:40:59;;;;;;;1.10;0.25;;;21.30;28.10;;;;;;5080909;28;20024;-50
2021/04/15 06:43:28;;;;;;;0.85;0.30;;;21.40;28.30;;;;;;5086805;28;20028;-54
2021/04/15 06:45:53;;;;;;;0.95;0.40;;;21.40;28.40;;;;;;5052839;28;20036;-58
2021/04/15 06:48:25;;;;;;;2.35;0.80;;;21.50;28.50;;;;;;5076275;28;20344;-58
2021/04/15 06:51:15;;;;;;;1.00;0.50;;;21.50;28.60;;;;;;5064519;28;20060;-59
2021/04/15 06:54:18;;;;;;;1.05;0.35;;;21.60;28.60;;;;;;5077929;28;20044;-51
2021/04/15 06:57:07;;;;;;;0.90;0.57;;;21.70;28.60;;;;;;5055945;28;20036;-58
2021/04/15 06:59:48;;;;;;;2.65;0.65;;;21.70;28.60;;;;;;5062186;28;20036;-53
2021/04/15 07:02:25;;;;;;;1.65;0.30;;;21.80;28.90;;;;;;5058128;28;20037;-59
2021/04/15 07:05:02;;;;;;;0.88;0.50;;;21.80;28.20;;;;;;5063542;28;20025;-57
2021/04/15 07:07:32;;;;;;;1.35;0.40;;;21.90;28.10;;;;;;5037774;28;20464;-59
2021/04/15 07:10:19;;;;;;;1.55;0.65;;;22.00;28.00;;;;;;5042745;28;20028;-55
2021/04/15 07:13:10;;;;;;;0.82;0.40;;;22.10;28.00;;;;;;5058520;28;20093;-56
2021/04/15 07:15:49;;;;;;;1.23;0.60;;;22.20;27.80;;;;;;5067916;28;20033;-52
2021/04/15 07:18:37;;;;;;;1.13;0.32;;;22.30;27.80;;;;;;5059753;28;20028;-55
2021/04/15 07:21:31;;;;;;;0.63;0.32;;;22.40;27.70;;;;;;5056952;28;20037;-53
2021/04/15 07:24:27;;;;;;;0.55;0.40;;;22.50;27.60;;;;;;5063793;28;20037;-56
2021/04/15 07:27:05;;;;;;;0.75;0.40;;;22.60;27.50;;;;;;5056496;28;20033;-55
2021/04/15 07:29:34;;;;;;;0.60;0.30;;;22.60;27.50;;;;;;5054844;28;20017;-51
2021/04/15 07:32:13;;;;;;;0.70;0.40;;;22.70;27.30;;;;;;5062103;28;20041;-54
2021/04/15 07:35:06;;;;;;;0.50;0.30;;;22.70;27.10;;;;;;5072521;28;20032;-54
2021/04/15 07:37:41;;;;;;;1.02;0.65;;;22.70;27.00;;;;;;5055253;28;20036;-54
2021/04/15 07:40:25;;;;;;;0.40;0.35;;;22.80;27.00;;;;;;5062523;28;20033;-53
2021/04/15 07:42:58;;;;;;;0.93;0.40;;;22.90;27.00;;;;;;5055189;28;20052;-56
2021/04/15 07:45:58;;;;;;;1.25;0.43;;;23.00;27.40;;;;;;5054065;28;20021;-56
2021/04/15 07:48:43;;;;;;;0.47;0.22;;;23.00;26.90;;;;;;5046688;28;20119;-64
2021/04/15 07:51:22;;;;;;;0.28;0.20;;;23.20;26.90;;;;;;5054434;28;20079;-52
2021/04/15 07:54:14;;;;;;;1.02;0.40;;;23.20;26.80;;;;;;5066385;28;20024;-56
2021/04/15 07:57:07;;;;;;;0.60;0.30;;;23.20;26.60;;;;;;5055234;28;20029;-55
2021/04/15 07:59:47;;;;;;;0.45;0.20;;;23.30;26.70;;;;;;5039422;28;20040;-57
2021/04/15 08:02:31;;;;;;;0.43;0.25;;;23.30;26.60;;;;;;5055509;28;20040;-61
2021/04/15 08:05:13;;;;;;;0.85;0.30;;;23.40;26.60;;;;;;5051508;28;20078;-54
2021/04/15 08:07:41;;;;;;;0.75;0.30;;;23.40;26.60;;;;;;5093628;28;20039;-53
2021/04/15 08:10:45;;;;;;;0.73;0.40;;;23.50;26.60;;;;;;5065490;28;20039;-53
2021/04/15 08:13:30;;;;;;;0.50;0.20;;;23.50;26.50;;;;;;5055609;28;20719;-51
2021/04/15 08:16:05;;;;;;;0.75;0.40;;;23.60;26.50;;;;;;5058418;28;20040;-52
2021/04/15 08:18:58;;;;;;;0.30;0.30;;;23.60;26.50;;;;;;5080584;28;20031;-48
2021/04/15 08:21:30;;;;;;;0.30;0.20;;;23.60;26.50;;;;;;5054277;28;20025;-52
2021/04/15 08:24:05;;;;;;;0.50;0.30;;;23.60;26.50;;;;;;5061455;28;20107;-52
2021/04/15 08:27:08;;;;;;;0.60;0.35;;;23.60;26.50;;;;;;5080606;28;20032;-55
2021/04/15 08:29:59;;;;;;;0.20;0.15;;;23.70;26.50;;;;;;5066539;28;20111;-47
2021/04/15 08:32:36;;;;;;;0.50;0.30;;;23.60;26.40;;;;;;5091470;28;20042;-47
2021/04/15 08:35:17;;;;;;;0.32;0.13;;;23.60;26.40;;;;;;5059874;28;20032;-49
2021/04/15 08:38:01;;;;;;;0.50;0.30;;;23.60;26.40;;;;;;5054255;28;20035;-47
2021/04/15 08:40:35;;;;;;;1.00;0.30;;;23.60;26.40;;;;;;5064419;28;20044;-50
2021/04/15 08:43:19;;;;;;;0.38;0.20;;;23.60;26.40;;;;;;5059857;28;20020;-49
2021/04/15 08:46:12;;;;;;;0.32;0.30;;;23.60;26.30;;;;;;5076869;28;20046;-51
2021/04/15 08:49:00;;;;;;;1.10;0.30;;;23.60;26.30;;;;;;5087178;28;20075;-54
2021/04/15 08:51:51;;;;;;;0.75;0.30;;;23.50;26.20;;;;;;5059835;28;20144;-52
2021/04/15 08:54:35;;;;;;;0.32;0.20;;;23.50;26.20;;;;;;5055103;28;20033;-49
2021/04/15 08:57:25;;;;;;;0.30;0.10;;;23.50;26.20;;;;;;5054633;28;20449;-48
2021/04/15 08:59:58;;;;;;;0.22;0.17;;;23.50;26.20;;;;;;5054960;28;20039;-53
2021/04/15 09:02:43;;;;;;;0.32;0.20;;;23.50;26.20;;;;;;5054108;28;20466;-52
2021/04/15 09:05:09;;;;;;;0.63;0.10;;;23.50;26.20;;;;;;5057398;28;20471;-52
2021/04/15 09:07:55;;;;;;;0.38;0.20;;;23.40;26.20;;;;;;5054445;28;20033;-55
2021/04/15 09:10:42;;;;;;;0.30;0.20;;;23.50;26.20;;;;;;5054829;28;20075;-52
2021/04/15 09:13:29;;;;;;;0.88;0.20;;;23.50;26.20;;;;;;5053630;28;20048;-53
2021/04/15 09:16:19;;;;;;;0.40;0.10;;;23.50;26.10;;;;;;5054484;28;20033;-50
2021/04/15 09:18:59;;;;;;;0.65;0.30;;;23.50;26.10;;;;;;5054395;28;20025;-53
2021/04/15 09:21:48;;;;;;;0.20;0.13;;;23.50;26.10;;;;;;5056779;28;20036;-48
2021/04/15 09:24:42;;;;;;;0.45;0.20;;;23.50;26.00;;;;;;5057638;28;20387;-49
2021/04/15 09:27:27;;;;;;;0.13;0.10;;;23.50;26.00;;;;;;5057628;28;20040;-53
2021/04/15 09:30:00;;;;;;;;;;;23.50;26.00;;;;;;5058400;28;20097;-51
2021/04/15 09:32:42;;;;;;;0.30;0.20;;;23.40;26.00;;;;;;5090473;28;20267;-47
2021/04/15 09:35:11;;;;;;;0.10;0.03;;;23.50;26.00;;;;;;5097985;28;20032;-48
2021/04/15 09:37:43;;;;;;;0.20;0.10;;;23.40;26.00;;;;;;5056762;28;20036;-51
2021/04/15 09:40:47;;;;;;;0.32;0.22;;;23.40;25.90;;;;;;5064278;28;20063;-46
2021/04/15 09:43:34;;;;;;;2.00;0.15;;;23.50;26.00;;;;;;5067223;28;20028;-53
2021/04/15 09:46:26;;;;;;;0.60;0.10;;;23.40;26.00;;;;;;5059219;28;20470;-53
2021/04/15 09:49:16;;;;;;;0.20;0.10;;;23.40;25.90;;;;;;5052342;28;20050;-53
2021/04/15 09:52:09;;;;;;;0.32;0.17;;;23.40;26.00;;;;;;5070426;28;20032;-56
2021/04/15 09:55:15;;;;;;;0.60;0.30;;;23.40;26.00;;;;;;5072661;28;20106;-53
2021/04/15 09:57:59;;;;;;;0.10;0.10;;;23.40;26.00;;;;;;5077224;28;20120;-55
2021/04/15 10:00:38;;;;;;;0.60;0.30;;;23.40;26.10;;;;;;5061865;28;20047;-58
2021/04/15 10:03:25;;;;;;;0.20;0.10;;;23.40;26.10;;;;;;5061864;28;20032;-51
2021/04/15 10:06:34;;;;;;;1.13;0.38;;;23.40;26.10;;;;;;5056022;28;20040;-50
2021/04/15 10:09:00;;;;;;;0.40;0.17;;;23.40;26.10;;;;;;5016702;28;20396;-53
2021/04/15 10:11:50;;;;;;;0.20;0.20;;;23.40;26.10;;;;;;5040201;28;20083;-55
2021/04/15 10:15:01;;;;;;;0.38;0.20;;;23.40;26.10;;;;;;5056544;28;20021;-50
2021/04/15 10:17:45;;;;;;;0.40;0.17;;;23.40;26.00;;;;;;5036170;28;20063;-51
2021/04/15 10:20:25;;;;;;;0.37;0.20;;;23.40;26.10;;;;;;5058397;28;20035;-52
2021/04/15 10:23:28;;;;;;;0.40;0.10;;;23.40;26.10;;;;;;5057576;28;20115;-57
2021/04/15 10:26:08;;;;;;;1.05;0.20;;;23.40;26.00;;;;;;5058256;28;20182;-55
2021/04/15 10:28:46;;;;;;;0.50;0.10;;;23.40;26.10;;;;;;5057547;28;20029;-56
2021/04/15 10:31:27;;;;;;;0.30;0.10;;;23.40;26.10;;;;;;5078133;28;20122;-58
2021/04/15 10:34:17;;;;;;;0.25;0.10;;;23.40;26.10;;;;;;5070068;28;20094;-60
2021/04/15 10:37:08;;;;;;;0.00;0.00;;;23.40;26.20;;;;;;5055743;28;20051;-56
2021/04/15 10:39:52;;;;;;;0.43;0.20;;;23.40;26.10;;;;;;5048835;28;20041;-57
2021/04/15 10:42:24;;;;;;;0.40;0.40;;;23.40;26.10;;;;;;5069940;28;20044;-57
2021/04/15 10:45:02;;;;;;;0.10;0.10;;;23.40;26.10;;;;;;5056383;28;20021;-56
2021/04/15 10:47:31;;;;;;;0.10;0.10;;;23.40;26.10;;;;;;5056363;28;20103;-56
2021/04/15 10:50:08;;;;;;;0.10;0.10;;;23.30;26.00;;;;;;5056443;28;20033;-53
2021/04/15 10:53:34;;;;;;;0.35;0.20;;;23.30;26.00;;;;;;5072303;28;20044;-58
2021/04/15 10:56:22;;;;;;;0.65;0.28;;;23.30;26.00;;;;;;5031229;28;20474;-56
2021/04/15 10:58:53;;;;;;;0.60;0.28;;;23.30;25.90;;;;;;5060243;28;20055;-61
2021/04/15 11:01:41;;;;;;;0.35;0.20;;;23.30;25.90;;;;;;5066394;28;20090;-57
2021/04/15 11:04:13;;;;;;;0.17;0.10;;;23.30;25.80;;;;;;5070314;28;20452;-57
2021/04/15 11:06:43;;;;;;;0.15;0.13;;;23.30;25.80;;;;;;5079477;28;20312;-53
2021/04/15 11:09:28;;;;;;;0.20;0.10;;;23.20;25.70;;;;;;5069891;28;20071;-52
2021/04/15 11:12:17;;;;;;;0.43;0.10;;;23.30;25.70;;;;;;5067739;28;20044;-57
2021/04/15 11:14:43;;;;;;;0.10;0.10;;;23.20;25.60;;;;;;5076241;28;20377;-51
2021/04/15 11:17:35;;;;;;;0.30;0.13;;;23.20;25.70;;;;;;5075023;28;20156;-54
2021/04/15 11:20:19;;;;;;;0.38;0.25;;;23.20;25.70;;;;;;5077105;28;20048;-59
2021/04/15 11:23:03;;;;;;;0.32;0.10;;;23.20;25.80;;;;;;5056852;28;20463;-57
2021/04/15 11:25:31;;;;;;;0.43;0.10;;;23.20;25.90;;;;;;5078924;28;20023;-49
2021/04/15 11:28:03;;;;;;;0.40;0.17;;;23.20;25.90;;;;;;5062022;28;20463;-58
2021/04/15 11:30:39;;;;;;;0.20;0.10;;;23.20;25.90;;;;;;5055738;28;20032;-57
2021/04/15 11:33:08;;;;;;;0.30;0.30;;;23.20;25.90;;;;;;5086644;28;20536;-53
2021/04/15 11:35:34;;;;;;;0.17;0.17;;;23.20;25.90;;;;;;5082678;28;20016;-55
2021/04/15 11:38:18;;;;;;;0.80;0.10;;;23.20;25.90;;;;;;5087989;28;20047;-58
2021/04/15 11:40:50;;;;;;;0.25;0.10;;;23.20;25.70;;;;;;5080216;28;20096;-56
2021/04/15 11:43:24;;;;;;;0.25;0.10;;;23.20;25.70;;;;;;5088700;28;20024;-55
2021/04/15 11:45:51;;;;;;;0.10;0.10;;;23.20;25.60;;;;;;5061513;28;20040;-55
2021/04/15 11:48:23;;;;;;;0.45;0.22;;;23.20;25.60;;;;;;5090525;28;20035;-56
2021/04/15 11:51:08;;;;;;;0.10;0.10;;;23.30;25.60;;;;;;5079942;28;20036;-53
2021/04/15 11:53:44;;;;;;;0.40;0.10;;;23.30;25.50;;;;;;5076163;28;20037;-57
2021/04/15 11:56:29;;;;;;;0.10;0.10;;;23.30;25.40;;;;;;5075472;28;20446;-54
2021/04/15 11:59:13;;;;;;;0.95;0.20;;;23.30;25.30;;;;;;5072383;28;20372;-56
2021/04/15 12:01:39;;;;;;;0.47;0.20;;;23.30;25.30;;;;;;5074735;28;20043;-56
2021/04/15 12:04:06;;;;;;;0.22;0.17;;;23.30;25.30;;;;;;5060916;28;20029;-56
2021/04/15 12:06:39;;;;;;;0.22;0.20;;;23.30;25.20;;;;;;5061496;28;20107;-58
2021/04/15 12:09:07;;;;;;;0.13;0.13;;;23.30;25.10;;;;;;5077764;28;20456;-59
2021/04/15 12:11:56;;;;;;;0.35;0.20;;;23.20;25.00;;;;;;5081213;28;20155;-57
2021/04/15 12:14:22;;;;;;;0.57;0.13;;;23.30;25.00;;;;;;5054816;28;20033;-55
2021/04/15 12:17:10;;;;;;;0.20;0.10;;;23.20;25.10;;;;;;5087682;28;20032;-58
2021/04/15 12:20:13;;;;;;;0.20;0.20;;;23.20;25.10;;;;;;5086674;28;20440;-56
2021/04/15 12:22:51;;;;;;;0.98;0.22;;;23.30;25.10;;;;;;5081862;28;20035;-54
2021/04/15 12:25:30;;;;;;;1.00;0.30;;;23.20;25.20;;;;;;5095310;28;20169;-57
2021/04/15 12:28:18;;;;;;;0.75;0.22;;;23.20;25.20;;;;;;5063422;28;20024;-57
2021/04/15 12:30:44;;;;;;;0.10;0.10;;;23.30;25.30;;;;;;5054791;28;20032;-58
2021/04/15 12:33:13;;;;;;;0.15;0.10;;;23.20;25.50;;;;;;5067030;28;20033;-59
2021/04/15 12:35:50;;;;;;;0.32;0.15;;;23.20;25.70;;;;;;5072457;28;20506;-60
2021/04/15 12:38:26;;;;;;;0.20;0.10;;;23.20;25.80;;;;;;5061223;28;20040;-61
2021/04/15 12:41:00;;;;;;;0.20;0.20;;;23.20;25.90;;;;;;5071025;28;20044;-58
2021/04/15 12:43:31;;;;;;;;;;;23.30;26.00;;;;;;5062749;28;20019;-59
2021/04/15 12:46:13;;;;;;;0.40;0.30;;;23.30;25.90;;;;;;5071587;28;20001;-56
2021/04/15 12:49:07;;;;;;;0.40;0.20;;;23.20;25.80;;;;;;5072159;28;20033;-58
2021/04/15 12:51:44;;;;;;;0.10;0.10;;;23.20;25.70;;;;;;5061335;28;20114;-59
2021/04/15 12:54:23;;;;;;;0.10;0.10;;;23.20;25.60;;;;;;5075604;28;20040;-58
2021/04/15 12:56:55;;;;;;;0.30;0.20;;;23.20;25.50;;;;;;5073479;28;20063;-59
2021/04/15 12:59:30;;;;;;;0.38;0.22;;;23.20;25.40;;;;;;5075993;28;20035;-60
2021/04/15 13:01:57;;;;;;;0.35;0.20;;;23.10;25.30;;;;;;5074486;28;20032;-59
2021/04/15 13:04:29;;;;;;;0.30;0.20;;;23.20;25.30;;;;;;5073690;28;20030;-60
2021/04/15 13:07:01;;;;;;;0.80;0.17;;;23.20;25.10;;;;;;5056385;28;20102;-59
2021/04/15 13:09:29;;;;;;;0.50;0.20;;;23.10;25.10;;;;;;5073993;28;20033;-58
2021/04/15 13:11:55;;;;;;;0.30;0.20;;;23.10;25.00;;;;;;5082053;28;20040;-59
2021/04/15 13:14:43;;;;;;;0.40;0.20;;;23.10;24.90;;;;;;5075968;28;20328;-60
2021/04/15 13:17:12;;;;;;;0.20;0.20;;;23.10;24.80;;;;;;5088407;28;20479;-58
2021/04/15 13:19:59;;;;;;;0.65;0.20;;;23.10;24.80;;;;;;5059661;28;20337;-59
2021/04/15 13:22:32;;;;;;;0.57;0.20;;;23.10;24.80;;;;;;5073605;28;20044;-56
2021/04/15 13:25:01;;;;;;;0.63;0.35;;;23.00;24.70;;;;;;5091242;28;20470;-58
2021/04/15 13:27:36;;;;;;;0.45;0.30;;;23.00;24.60;;;;;;5091669;28;20339;-59
2021/04/15 13:30:23;;;;;;;0.20;0.20;;;23.00;24.60;;;;;;5075961;28;20317;-58
2021/04/15 13:33:11;;;;;;;0.10;0.10;;;23.00;24.50;;;;;;5041415;28;20076;-59
2021/04/15 13:35:57;;;;;;;1.17;0.28;;;23.00;24.50;;;;;;5056596;28;20039;-56
2021/04/15 13:38:26;;;;;;;0.10;0.10;;;23.00;24.40;;;;;;5066489;28;20440;-56
2021/04/15 13:41:05;;;;;;;1.83;0.20;;;23.00;24.40;;;;;;5078706;28;20036;-56
2021/04/15 13:44:08;;;;;;;0.70;0.20;;;23.00;24.40;;;;;;5059002;28;20042;-56
2021/04/15 13:46:47;;;;;;;0.10;0.10;;;22.90;24.30;;;;;;5052486;28;20042;-58